createdAt,value
2022-10-15T00:00:17.865Z,0.40
2022-10-15T00:02:44.356Z,0.30
2022-10-15T00:05:10.908Z,0.50
2022-10-15T00:07:37.488Z,0.22
2022-10-15T00:10:04.298Z,0.30
2022-10-15T00:12:30.857Z,0.20
2022-10-15T00:14:57.402Z,0.28
2022-10-15T00:17:24.345Z,0.20
2022-10-15T00:19:51.146Z,0.30
2022-10-15T00:22:17.871Z,0.30
2022-10-15T00:24:44.421Z,0.20
2022-10-15T00:27:10.931Z,0.22
2022-10-15T00:29:37.448Z,0.22
2022-10-15T00:32:04.027Z,0.30
2022-10-15T00:34:30.805Z,0.40
2022-10-15T00:36:57.326Z,0.50
2022-10-15T00:39:24.071Z,0.85
2022-10-15T00:41:50.626Z,0.63
2022-10-15T00:44:26.801Z,0.85
2022-10-15T00:47:17.921Z,0.93
2022-10-15T00:49:55.453Z,0.90
2022-10-15T00:52:37.289Z,0.95
2022-10-15T00:55:12.520Z,1.00
2022-10-15T00:57:40.355Z,1.10
2022-10-15T01:00:11.255Z,0.90
2022-10-15T01:02:38.071Z,1.58
2022-10-15T01:05:05.478Z,1.77
2022-10-15T01:07:31.985Z,1.67
2022-10-15T01:09:58.705Z,2.10
2022-10-15T01:12:25.445Z,2.35
2022-10-15T01:15:05.306Z,2.20
2022-10-15T01:17:48.133Z,3.05
2022-10-15T01:20:31.791Z,2.72
2022-10-15T01:23:07.434Z,3.10
2022-10-15T01:25:55.835Z,2.78
2022-10-15T01:28:53.020Z,3.10
2022-10-15T01:31:42.078Z,3.10
2022-10-15T01:34:25.172Z,2.92
2022-10-15T01:37:03.885Z,2.85
2022-10-15T01:39:59.478Z,3.53
2022-10-15T01:42:36.119Z,4.43
2022-10-15T01:45:07.650Z,3.50
2022-10-15T01:47:37.996Z,3.35
2022-10-15T01:50:06.784Z,3.50
2022-10-15T01:52:37.433Z,4.03
2022-10-15T01:55:07.093Z,4.40
2022-10-15T01:57:35.041Z,3.75
2022-10-15T02:00:04.632Z,4.03
2022-10-15T02:02:31.139Z,4.93
2022-10-15T02:04:57.787Z,4.85
2022-10-15T02:07:57.017Z,4.93
2022-10-15T02:10:52.896Z,4.90
2022-10-15T02:13:40.836Z,4.88
2022-10-15T02:16:41.666Z,5.15
2022-10-15T02:19:32.222Z,4.88
2022-10-15T02:22:09.055Z,5.28
2022-10-15T02:24:41.796Z,4.95
2022-10-15T02:27:11.017Z,4.70
2022-10-15T02:29:40.090Z,3.70
2022-10-15T02:32:08.420Z,3.78
2022-10-15T02:34:36.468Z,3.25
2022-10-15T02:37:05.016Z,2.70
2022-10-15T02:39:32.026Z,2.88
2022-10-15T02:41:58.789Z,3.20
2022-10-15T02:44:25.415Z,3.85
2022-10-15T02:46:51.973Z,4.13
2022-10-15T02:49:18.502Z,4.25
2022-10-15T02:51:45.028Z,4.68
2022-10-15T02:54:11.902Z,4.13
2022-10-15T02:56:39.523Z,4.10
2022-10-15T02:59:06.832Z,4.55
2022-10-15T03:01:34.281Z,4.55
2022-10-15T03:04:01.771Z,4.63
2022-10-15T03:06:28.398Z,4.68
2022-10-15T03:08:54.919Z,4.40
2022-10-15T03:11:21.462Z,4.03
2022-10-15T03:13:47.982Z,4.28
2022-10-15T03:16:14.595Z,4.10
2022-10-15T03:18:41.329Z,4.75
2022-10-15T03:21:08.164Z,5.38
2022-10-15T03:23:34.865Z,5.82
2022-10-15T03:26:01.908Z,5.93
2022-10-15T03:28:28.479Z,6.00
2022-10-15T03:30:55.262Z,6.45
2022-10-15T03:33:24.381Z,7.13
2022-10-15T03:35:52.826Z,6.95
2022-10-15T03:38:19.788Z,7.22
2022-10-15T03:40:46.701Z,6.53
2022-10-15T03:43:13.332Z,5.72
2022-10-15T03:45:40.036Z,5.68
2022-10-15T03:48:06.822Z,5.85
2022-10-15T03:50:33.395Z,5.80
2022-10-15T03:53:02.314Z,5.13
2022-10-15T03:55:28.851Z,5.57
2022-10-15T03:57:55.357Z,6.15
2022-10-15T04:00:21.963Z,5.55
2022-10-15T04:02:48.500Z,5.68
2022-10-15T04:05:15.168Z,6.57
2022-10-15T04:07:42.822Z,5.85
2022-10-15T04:10:09.705Z,6.32
2022-10-15T04:12:36.265Z,5.80
2022-10-15T04:15:03.175Z,6.10
2022-10-15T04:17:29.691Z,5.95
2022-10-15T04:19:56.202Z,5.80
2022-10-15T04:22:23.072Z,6.15
2022-10-15T04:24:50.011Z,5.85
2022-10-15T04:27:16.581Z,6.22
2022-10-15T04:29:43.135Z,6.40
2022-10-15T04:32:16.346Z,6.28
2022-10-15T04:34:43.177Z,5.72
2022-10-15T04:37:09.665Z,6.25
2022-10-15T04:39:36.178Z,6.60
2022-10-15T04:42:02.766Z,5.95
2022-10-15T04:44:29.366Z,5.90
2022-10-15T04:46:55.863Z,5.95
2022-10-15T04:49:22.455Z,5.57
2022-10-15T04:51:49.133Z,5.55
2022-10-15T04:54:15.747Z,3.85
2022-10-15T04:56:42.359Z,1.70
2022-10-15T04:59:09.739Z,2.17
2022-10-15T05:01:36.367Z,3.88
2022-10-15T05:04:03.044Z,3.97
2022-10-15T05:06:29.559Z,2.60
2022-10-15T05:08:56.061Z,2.80
2022-10-15T05:11:26.273Z,2.50
2022-10-15T05:13:56.191Z,2.92
2022-10-15T05:16:25.594Z,2.80
2022-10-15T05:18:56.184Z,2.42
2022-10-15T05:21:22.744Z,2.10
2022-10-15T05:23:50.323Z,2.35
2022-10-15T05:26:25.077Z,2.80
2022-10-15T05:28:52.481Z,2.30
2022-10-15T05:31:21.590Z,2.40
2022-10-15T05:33:49.831Z,2.38
2022-10-15T05:36:20.561Z,3.50
2022-10-15T05:38:53.105Z,2.17
2022-10-15T05:41:20.979Z,2.20
2022-10-15T05:43:49.071Z,2.28
2022-10-15T05:46:15.726Z,2.00
2022-10-15T05:48:42.639Z,2.13
2022-10-15T05:51:12.881Z,2.20
2022-10-15T05:53:40.529Z,1.75
2022-10-15T05:56:08.478Z,2.38
2022-10-15T05:58:37.474Z,2.20
2022-10-15T06:01:08.161Z,2.17
2022-10-15T06:03:35.746Z,2.38
2022-10-15T06:06:02.386Z,2.20
2022-10-15T06:08:30.523Z,2.35
2022-10-15T06:11:06.761Z,1.88
2022-10-15T06:13:37.917Z,3.33
2022-10-15T06:16:04.916Z,3.72
2022-10-15T06:18:31.902Z,3.50
2022-10-15T06:20:58.427Z,4.22
2022-10-15T06:23:24.962Z,4.35
2022-10-15T06:25:51.591Z,4.47
2022-10-15T06:28:18.370Z,4.85
2022-10-15T06:30:45.097Z,4.30
2022-10-15T06:35:44.072Z,4.28
2022-10-15T06:38:10.931Z,4.60
2022-10-15T06:40:38.879Z,4.28
2022-10-15T06:43:08.143Z,4.88
2022-10-15T06:45:37.184Z,4.97
2022-10-15T06:48:05.115Z,4.43
2022-10-15T06:50:40.840Z,4.90
2022-10-15T06:53:08.312Z,6.28
2022-10-15T06:55:35.471Z,7.38
2022-10-15T06:58:02.060Z,7.22
2022-10-15T07:00:28.836Z,7.72
2022-10-15T07:02:55.458Z,9.07
2022-10-15T07:05:22.185Z,7.80
2022-10-15T07:07:52.645Z,8.20
2022-10-15T07:12:50.782Z,7.72
2022-10-15T07:15:17.884Z,7.93
2022-10-15T07:17:52.298Z,8.18
2022-10-15T07:20:22.025Z,7.60
2022-10-15T07:22:51.052Z,7.05
2022-10-15T07:25:17.857Z,7.47
2022-10-15T07:27:44.691Z,7.10
2022-10-15T07:30:11.692Z,7.05
2022-10-15T07:32:38.332Z,6.07
2022-10-15T07:35:05.317Z,5.50
2022-10-15T07:37:32.897Z,5.55
2022-10-15T07:39:59.495Z,6.57
2022-10-15T07:42:26.389Z,5.38
2022-10-15T07:44:53.059Z,4.15
2022-10-15T07:47:19.923Z,4.68
2022-10-15T07:49:46.484Z,3.42
2022-10-15T07:52:13.151Z,3.00
2022-10-15T07:54:39.776Z,2.45
2022-10-15T07:57:09.251Z,2.10
2022-10-15T07:59:36.007Z,1.55
2022-10-15T08:02:02.781Z,1.40
2022-10-15T08:04:29.459Z,1.30
2022-10-15T08:06:56.058Z,1.48
2022-10-15T08:09:22.798Z,1.33
2022-10-15T08:11:49.351Z,1.30
2022-10-15T08:14:15.877Z,1.38
2022-10-15T08:16:42.430Z,1.13
2022-10-15T08:19:08.972Z,1.08
2022-10-15T08:21:35.493Z,1.15
2022-10-15T08:24:02.101Z,1.40
2022-10-15T08:26:28.714Z,1.05
2022-10-15T08:28:55.335Z,1.02
2022-10-15T08:31:21.943Z,1.27
2022-10-15T08:33:48.559Z,0.90
2022-10-15T08:36:15.147Z,1.10
2022-10-15T08:38:41.742Z,1.15
2022-10-15T08:41:26.684Z,1.42
2022-10-15T08:43:53.519Z,1.40
2022-10-15T08:46:25.416Z,0.80
2022-10-15T08:48:56.237Z,0.95
2022-10-15T08:51:28.501Z,0.77
2022-10-15T08:54:02.371Z,0.90
2022-10-15T08:56:39.293Z,0.70
2022-10-15T08:59:36.889Z,0.82
2022-10-15T09:02:17.519Z,0.88
2022-10-15T09:04:58.964Z,0.80
2022-10-15T09:07:54.354Z,0.80
2022-10-15T09:10:30.375Z,0.65
2022-10-15T09:13:16.452Z,0.88
2022-10-15T09:15:58.134Z,0.80
2022-10-15T09:18:28.793Z,0.97
2022-10-15T09:20:57.498Z,0.80
2022-10-15T09:23:27.468Z,0.90
2022-10-15T09:26:06.851Z,0.68
2022-10-15T09:28:43.570Z,0.80
2022-10-15T09:31:13.554Z,0.80
2022-10-15T09:33:45.317Z,0.77
2022-10-15T09:36:33.510Z,0.63
2022-10-15T09:39:21.665Z,0.63
2022-10-15T09:42:09.835Z,0.60
2022-10-15T09:44:41.956Z,0.60
2022-10-15T09:49:42.877Z,0.60
2022-10-15T09:52:21.972Z,0.73
2022-10-15T09:55:19.034Z,0.50
2022-10-15T09:57:51.646Z,0.45
2022-10-15T10:00:18.326Z,0.50
2022-10-15T10:02:44.918Z,0.50
2022-10-15T10:05:28.453Z,0.60
2022-10-15T10:08:24.275Z,0.47
2022-10-15T10:10:55.939Z,0.40
2022-10-15T10:13:32.869Z,0.55
2022-10-15T10:16:06.371Z,0.50
2022-10-15T10:18:33.201Z,0.30
2022-10-15T10:21:02.355Z,0.60
2022-10-15T10:23:31.986Z,0.40
2022-10-15T10:25:59.849Z,0.20
2022-10-15T10:28:32.845Z,0.40
2022-10-15T10:31:03.941Z,0.50
2022-10-15T10:33:52.288Z,0.40
2022-10-15T10:36:28.506Z,0.20
2022-10-15T10:39:28.962Z,0.20
2022-10-15T10:42:15.996Z,0.30
2022-10-15T10:44:46.932Z,0.40
2022-10-15T10:47:15.362Z,0.35
2022-10-15T10:49:46.740Z,0.35
2022-10-15T10:52:37.780Z,0.20
2022-10-15T10:55:18.043Z,0.40
2022-10-15T10:57:59.509Z,0.30
2022-10-15T11:00:32.503Z,0.40
2022-10-15T11:02:59.475Z,0.35
2022-10-15T11:05:29.263Z,0.32
2022-10-15T11:08:11.067Z,0.40
2022-10-15T11:11:04.676Z,0.80
2022-10-15T11:13:43.942Z,0.22
2022-10-15T11:16:21.269Z,0.20
2022-10-15T11:19:13.728Z,0.50
2022-10-15T11:21:58.689Z,0.20
2022-10-15T11:24:48.471Z,0.22
2022-10-15T11:27:52.895Z,0.40
2022-10-15T11:30:55.218Z,0.30
2022-10-15T11:33:24.447Z,0.50
2022-10-15T11:36:23.782Z,0.28
2022-10-15T11:39:37.446Z,0.35
2022-10-15T11:42:32.487Z,0.68
2022-10-15T11:45:28.835Z,0.90
2022-10-15T11:48:22.503Z,0.70
2022-10-15T11:51:00.694Z,0.55
2022-10-15T11:53:53.839Z,0.40
2022-10-15T11:56:28.604Z,0.50
2022-10-15T11:59:02.923Z,0.60
2022-10-15T12:01:50.016Z,0.50
2022-10-15T12:04:32.578Z,0.47
2022-10-15T12:07:02.484Z,0.40
2022-10-15T12:09:35.168Z,0.50
2022-10-15T12:12:20.455Z,0.63
2022-10-15T12:15:14.040Z,0.40
2022-10-15T12:17:54.387Z,0.75
2022-10-15T12:20:23.328Z,0.40
2022-10-15T12:22:52.830Z,0.50
2022-10-15T12:25:34.834Z,0.30
2022-10-15T12:28:03.977Z,0.40
2022-10-15T12:30:37.182Z,0.40
2022-10-15T12:33:23.085Z,0.80
2022-10-15T12:35:59.010Z,0.55
2022-10-15T12:38:33.296Z,0.40
2022-10-15T12:41:10.531Z,0.35
2022-10-15T12:43:41.957Z,0.60
2022-10-15T12:46:11.107Z,0.50
2022-10-15T12:48:46.232Z,0.45
2022-10-15T12:51:31.555Z,0.30
2022-10-15T12:54:00.351Z,0.30
2022-10-15T12:56:39.463Z,0.40
2022-10-15T12:59:50.137Z,0.40
2022-10-15T13:02:49.655Z,0.43
2022-10-15T13:05:35.908Z,0.43
2022-10-15T13:08:14.854Z,0.40
2022-10-15T13:10:57.098Z,0.60
2022-10-15T13:15:57.091Z,0.45
2022-10-15T13:20:54.658Z,0.40
2022-10-15T13:23:31.403Z,0.30
2022-10-15T13:26:20.446Z,0.50
2022-10-15T13:28:49.270Z,0.50
2022-10-15T13:31:27.520Z,0.47
2022-10-15T13:34:16.328Z,0.30
2022-10-15T13:36:45.082Z,0.30
2022-10-15T13:45:01.632Z,0.52
2022-10-15T13:47:32.723Z,0.40
2022-10-15T13:50:24.400Z,0.52
2022-10-15T13:53:05.788Z,0.45
2022-10-15T13:55:36.417Z,0.50
2022-10-15T13:58:24.979Z,0.45
2022-10-15T14:01:00.957Z,0.47
2022-10-15T14:03:30.693Z,0.60
2022-10-15T14:06:07.910Z,0.55
2022-10-15T14:08:36.357Z,0.70
2022-10-15T14:11:03.450Z,0.40
2022-10-15T14:13:29.997Z,0.40
2022-10-15T14:16:42.441Z,0.47
2022-10-15T14:19:12.009Z,0.68
2022-10-15T14:21:44.676Z,0.45
2022-10-15T14:24:16.496Z,0.50
2022-10-15T14:26:44.359Z,0.38
2022-10-15T14:29:25.009Z,0.60
2022-10-15T14:31:51.614Z,0.60
2022-10-15T14:34:38.868Z,0.50
2022-10-15T14:37:36.510Z,0.40
2022-10-15T14:40:23.270Z,0.50
2022-10-15T14:43:05.069Z,0.50
2022-10-15T14:45:53.325Z,0.30
2022-10-15T14:48:24.715Z,0.25
2022-10-15T14:50:51.324Z,0.38
2022-10-15T14:53:21.825Z,0.47
2022-10-15T14:56:03.094Z,0.57
2022-10-15T14:58:30.749Z,0.60
2022-10-15T15:00:59.584Z,0.60
2022-10-15T15:03:31.909Z,0.50
2022-10-15T15:05:58.539Z,0.43
2022-10-15T15:08:26.068Z,0.68
2022-10-15T15:10:56.306Z,0.40
2022-10-15T15:13:27.969Z,0.32
2022-10-15T15:15:54.953Z,0.30
2022-10-15T15:18:21.559Z,0.20
2022-10-15T15:20:50.646Z,0.30
2022-10-15T15:23:23.865Z,0.70
2022-10-15T15:25:52.286Z,0.57
2022-10-15T15:28:21.551Z,0.30
2022-10-15T15:31:05.539Z,0.52
2022-10-15T15:33:33.314Z,0.40
2022-10-15T15:36:09.793Z,0.40
2022-10-15T15:41:12.471Z,0.50
2022-10-15T15:43:39.359Z,0.50
2022-10-15T15:46:06.179Z,0.60
2022-10-15T15:48:32.827Z,0.70
2022-10-15T15:51:02.658Z,0.50
2022-10-15T15:53:29.593Z,0.77
2022-10-15T15:55:56.147Z,0.60
2022-10-15T15:58:22.662Z,0.70
2022-10-15T16:00:49.231Z,0.80
2022-10-15T16:03:15.779Z,0.47
2022-10-15T16:05:42.689Z,0.80
2022-10-15T16:08:10.443Z,0.70
2022-10-15T16:10:37.043Z,1.00
2022-10-15T16:13:03.785Z,0.57
2022-10-15T16:15:30.339Z,1.00
2022-10-15T16:17:56.878Z,1.05
2022-10-15T16:20:23.410Z,1.00
2022-10-15T16:22:53.719Z,0.80
2022-10-15T16:25:22.530Z,0.80
2022-10-15T16:27:51.786Z,0.88
2022-10-15T16:30:19.323Z,0.50
2022-10-15T16:32:46.167Z,0.57
2022-10-15T16:35:12.745Z,0.88
2022-10-15T16:37:39.302Z,0.68
2022-10-15T16:40:06.562Z,0.60
2022-10-15T16:42:33.073Z,0.50
2022-10-15T16:44:59.578Z,0.70
2022-10-15T16:47:26.294Z,1.30
2022-10-15T16:49:55.506Z,1.23
2022-10-15T16:52:22.220Z,0.90
2022-10-15T16:54:48.941Z,1.05
2022-10-15T16:57:15.445Z,0.75
2022-10-15T16:59:41.986Z,0.75
2022-10-15T17:02:09.908Z,1.10
2022-10-15T17:04:36.493Z,1.02
2022-10-15T17:07:03.027Z,0.90
2022-10-15T17:09:29.670Z,1.10
2022-10-15T17:11:56.167Z,1.15
2022-10-15T17:14:22.668Z,1.10
2022-10-15T17:16:51.587Z,0.80
2022-10-15T17:19:23.542Z,0.88
2022-10-15T17:21:50.830Z,0.93
2022-10-15T17:24:19.330Z,1.02
2022-10-15T17:26:46.964Z,0.68
2022-10-15T17:29:20.699Z,0.80
2022-10-15T17:31:48.379Z,0.70
2022-10-15T17:34:14.969Z,0.70
2022-10-15T17:36:47.739Z,0.82
2022-10-15T17:39:17.883Z,1.23
2022-10-15T17:41:44.479Z,1.00
2022-10-15T17:44:11.872Z,1.00
2022-10-15T17:46:39.067Z,1.08
2022-10-15T17:49:06.277Z,0.73
2022-10-15T17:51:33.251Z,0.70
2022-10-15T17:54:00.403Z,1.15
2022-10-15T17:56:32.367Z,0.88
2022-10-15T17:59:00.688Z,0.90
2022-10-15T18:01:33.717Z,0.60
2022-10-15T18:04:12.928Z,0.50
2022-10-15T18:06:44.298Z,0.50
2022-10-15T18:09:10.841Z,0.60
2022-10-15T18:11:37.595Z,0.80
2022-10-15T18:14:04.111Z,0.40
2022-10-15T18:16:30.812Z,0.68
2022-10-15T18:18:57.389Z,0.60
2022-10-15T18:21:27.460Z,0.40
2022-10-15T18:23:56.520Z,0.70
2022-10-15T18:26:23.947Z,0.80
2022-10-15T18:28:52.204Z,0.88
2022-10-15T18:31:19.746Z,1.10
2022-10-15T18:33:49.191Z,0.90
2022-10-15T18:36:18.355Z,1.00
2022-10-15T18:38:45.183Z,1.30
2022-10-15T18:41:15.673Z,0.93
2022-10-15T18:43:42.375Z,0.70
2022-10-15T18:46:09.424Z,0.80
2022-10-15T18:48:38.851Z,0.80
2022-10-15T18:51:08.782Z,1.15
2022-10-15T18:53:39.527Z,1.42
2022-10-15T18:56:07.076Z,1.00
2022-10-15T18:58:33.871Z,1.00
2022-10-15T19:01:10.566Z,1.13
2022-10-15T19:03:37.266Z,1.20
2022-10-15T19:06:03.888Z,1.50
2022-10-15T19:08:31.137Z,1.20
2022-10-15T19:11:08.602Z,1.40
2022-10-15T19:13:36.289Z,1.42
2022-10-15T19:16:04.504Z,1.45
2022-10-15T19:18:31.813Z,1.55
2022-10-15T19:20:58.405Z,1.50
2022-10-15T19:23:25.063Z,1.80
2022-10-15T19:25:52.075Z,2.08
2022-10-15T19:28:18.700Z,1.95
2022-10-15T19:31:03.254Z,1.50
2022-10-15T19:33:31.522Z,1.50
2022-10-15T19:35:58.484Z,1.63
2022-10-15T19:38:26.342Z,1.17
2022-10-15T19:40:53.682Z,1.60
2022-10-15T19:43:22.051Z,2.25
2022-10-15T19:45:49.075Z,1.50
2022-10-15T19:48:18.572Z,1.52
2022-10-15T19:50:46.731Z,1.25
2022-10-15T19:53:16.449Z,1.65
2022-10-15T19:55:44.147Z,1.13
2022-10-15T19:58:10.693Z,1.38
2022-10-15T20:00:37.253Z,1.70
2022-10-15T20:03:03.865Z,1.17
2022-10-15T20:05:30.429Z,1.10
2022-10-15T20:07:56.948Z,1.60
2022-10-15T20:10:26.022Z,0.80
2022-10-15T20:12:53.342Z,1.15
2022-10-15T20:15:20.056Z,1.10
2022-10-15T20:17:47.231Z,0.95
2022-10-15T20:20:13.723Z,1.27
2022-10-15T20:22:40.261Z,1.35
2022-10-15T20:25:07.268Z,1.15
2022-10-15T20:27:33.847Z,1.48
2022-10-15T20:30:00.360Z,1.88
2022-10-15T20:32:35.286Z,2.85
2022-10-15T20:35:04.217Z,2.28
2022-10-15T20:37:31.101Z,5.95
2022-10-15T20:42:29.251Z,11.80
2022-10-15T20:44:55.859Z,12.98
2022-10-15T20:47:24.053Z,8.30
2022-10-15T20:49:54.154Z,6.50
2022-10-15T20:52:22.583Z,4.28
2022-10-15T20:54:50.307Z,3.70
2022-10-15T20:57:16.842Z,2.85
2022-10-15T20:59:43.374Z,4.00
2022-10-15T21:02:09.957Z,2.00
2022-10-15T21:04:36.460Z,4.32
2022-10-15T21:07:02.981Z,3.55
2022-10-15T21:09:29.479Z,4.80
2022-10-15T21:11:56.022Z,3.80
2022-10-15T21:14:22.577Z,3.80
2022-10-15T21:16:49.152Z,4.35
2022-10-15T21:19:15.661Z,4.18
2022-10-15T21:21:42.159Z,4.95
2022-10-15T21:24:08.704Z,3.70
2022-10-15T21:26:35.185Z,3.97
2022-10-15T21:29:01.836Z,3.30
2022-10-15T21:31:28.535Z,2.75
2022-10-15T21:33:55.719Z,3.75
2022-10-15T21:36:27.199Z,3.42
2022-10-15T21:38:56.395Z,2.95
2022-10-15T21:41:24.476Z,2.35
2022-10-15T21:43:51.865Z,2.65
2022-10-15T21:46:19.026Z,2.17
2022-10-15T21:48:45.905Z,3.58
2022-10-15T21:51:17.861Z,2.80
2022-10-15T21:53:44.615Z,2.40
2022-10-15T21:56:11.275Z,2.78
2022-10-15T21:58:39.282Z,3.35
2022-10-15T22:01:23.449Z,4.60
2022-10-15T22:03:51.552Z,4.20
2022-10-15T22:06:19.339Z,4.32
2022-10-15T22:08:46.633Z,3.83
2022-10-15T22:11:15.779Z,2.90
2022-10-15T22:13:44.191Z,2.42
2022-10-15T22:16:11.640Z,2.60
2022-10-15T22:18:38.668Z,2.33
2022-10-15T22:21:15.943Z,2.20
2022-10-15T22:23:50.004Z,1.75
2022-10-15T22:26:18.603Z,1.90
2022-10-15T22:28:46.043Z,1.52
2022-10-15T22:31:15.123Z,1.40
2022-10-15T22:33:42.597Z,1.30
2022-10-15T22:36:18.023Z,1.50
2022-10-15T22:38:46.532Z,1.25
2022-10-15T22:41:13.918Z,1.40
2022-10-15T22:43:40.756Z,1.00
2022-10-15T22:46:07.906Z,0.98
2022-10-15T22:48:35.847Z,1.17
2022-10-15T22:51:03.855Z,1.10
2022-10-15T22:53:31.440Z,1.00
2022-10-15T22:56:02.307Z,0.90
2022-10-15T22:58:31.350Z,0.77
2022-10-15T23:01:11.159Z,0.90
2022-10-15T23:03:39.187Z,0.50
2022-10-15T23:06:06.438Z,0.80
2022-10-15T23:08:34.394Z,0.68
2022-10-15T23:11:12.761Z,0.70
2022-10-15T23:13:40.540Z,0.50
2022-10-15T23:16:07.136Z,0.88
2022-10-15T23:18:33.704Z,0.73
2022-10-15T23:21:11.375Z,1.15
2022-10-15T23:23:37.857Z,0.90
2022-10-15T23:26:04.362Z,0.98
2022-10-15T23:28:30.966Z,0.90
2022-10-15T23:30:57.535Z,0.98
2022-10-15T23:33:24.552Z,1.02
2022-10-15T23:36:04.513Z,1.20
2022-10-15T23:38:31.259Z,0.98
2022-10-15T23:41:07.318Z,1.00
2022-10-15T23:43:34.071Z,1.30
2022-10-15T23:46:00.853Z,1.05
2022-10-15T23:48:28.289Z,1.10
2022-10-15T23:50:59.258Z,1.50
2022-10-15T23:53:29.142Z,1.02
2022-10-15T23:55:55.703Z,1.20
2022-10-15T23:58:22.218Z,0.80
